Terminal Aerodrome Forecast
Issued by NWS Tampa Bay Area, FL

Home | Current Version | Previous Version | Text Only | Print | Product List | Glossary On
Versions: 1 2 3 4 5 6 7 8 9 10 11 12 13 14 15 16 17 18 19 20 21 22 23 24 25
134
FTUS42 KTBW 201722
TAFTPA
TAF
KTPA 201722Z 2018/2118 14006KT P6SM VCTS SCT050CB BKN200
     FM202000 07006KT P6SM VCTS SCT035CB
     FM202100 04006KT P6SM SHRA BKN040
     FM210300 11005KT P6SM BKN150=

USA.gov is the U.S. government's official web portal to all federal, state and local government web resources and services.